createdAt,value
2023-01-29T00:00:22.511Z,11.47
2023-01-29T00:02:52.451Z,11.47
2023-01-29T00:05:27.846Z,10.03
2023-01-29T00:07:57.126Z,9.87
2023-01-29T00:10:26.634Z,11.33
2023-01-29T00:12:55.539Z,10.23
2023-01-29T00:15:24.271Z,10.80
2023-01-29T00:17:54.229Z,11.00
2023-01-29T00:20:22.888Z,10.83
2023-01-29T00:22:51.533Z,12.50
2023-01-29T00:25:20.292Z,10.87
2023-01-29T00:27:48.921Z,12.50
2023-01-29T00:30:19.773Z,12.30
2023-01-29T00:32:48.830Z,11.23
2023-01-29T00:35:18.966Z,12.53
2023-01-29T00:37:48.078Z,11.67
2023-01-29T00:40:17.377Z,11.93
2023-01-29T00:43:05.101Z,12.20
2023-01-29T00:45:34.051Z,12.03
2023-01-29T00:48:02.758Z,10.03
2023-01-29T00:50:33.574Z,11.23
2023-01-29T00:53:02.182Z,15.47
2023-01-29T00:55:31.458Z,16.50
2023-01-29T00:58:00.252Z,20.60
2023-01-29T01:00:28.852Z,13.33
2023-01-29T01:03:08.347Z,12.47
2023-01-29T01:05:39.147Z,11.07
2023-01-29T01:08:28.605Z,13.67
2023-01-29T01:11:01.079Z,16.07
2023-01-29T01:13:30.123Z,12.03
2023-01-29T01:15:59.188Z,11.90
2023-01-29T01:18:31.466Z,11.37
2023-01-29T01:21:01.745Z,11.73
2023-01-29T01:23:30.525Z,11.33
2023-01-29T01:25:59.225Z,11.43
2023-01-29T01:28:28.267Z,11.77
2023-01-29T01:30:57.176Z,10.67
2023-01-29T01:33:25.816Z,11.60
2023-01-29T01:35:54.453Z,9.70
2023-01-29T01:38:25.029Z,11.77
2023-01-29T01:40:53.775Z,10.60
2023-01-29T01:43:22.518Z,10.87
2023-01-29T01:45:51.120Z,10.60
2023-01-29T01:48:22.944Z,11.07
2023-01-29T01:50:54.421Z,10.83
2023-01-29T01:53:30.639Z,10.27
2023-01-29T01:56:04.874Z,10.93
2023-01-29T01:58:36.971Z,10.73
2023-01-29T02:01:08.305Z,10.40
2023-01-29T02:04:00.800Z,12.50
2023-01-29T02:06:46.988Z,11.77
2023-01-29T02:09:33.361Z,10.77
2023-01-29T02:12:02.580Z,12.43
2023-01-29T02:14:32.022Z,11.23
2023-01-29T02:17:02.341Z,11.20
2023-01-29T02:19:42.778Z,11.20
2023-01-29T02:22:30.663Z,10.23
2023-01-29T02:25:32.736Z,11.20
2023-01-29T02:28:21.903Z,9.97
2023-01-29T02:30:58.988Z,11.20
2023-01-29T02:33:37.127Z,10.37
2023-01-29T02:36:16.989Z,10.80
2023-01-29T02:38:51.955Z,11.13
2023-01-29T02:41:27.856Z,10.80
2023-01-29T02:44:06.296Z,11.40
2023-01-29T02:46:38.985Z,11.67
2023-01-29T02:49:14.129Z,10.23
2023-01-29T02:51:49.751Z,10.07
2023-01-29T02:54:22.988Z,10.50
2023-01-29T02:56:57.369Z,10.47
2023-01-29T02:59:35.525Z,10.37
2023-01-29T03:02:09.430Z,10.30
2023-01-29T03:04:45.736Z,11.37
2023-01-29T03:07:41.082Z,11.07
2023-01-29T03:10:20.435Z,11.37
2023-01-29T03:12:55.513Z,11.10
2023-01-29T03:15:30.536Z,11.97
2023-01-29T03:18:26.075Z,13.03
2023-01-29T03:21:01.472Z,11.60
2023-01-29T03:23:50.397Z,10.60
2023-01-29T03:26:40.281Z,12.83
2023-01-29T03:29:28.873Z,11.17
2023-01-29T03:32:05.681Z,12.17
2023-01-29T03:34:43.628Z,12.63
2023-01-29T03:37:18.784Z,12.13
2023-01-29T03:39:47.564Z,12.83
2023-01-29T03:42:24.872Z,11.57
2023-01-29T03:45:01.686Z,12.17
2023-01-29T03:47:44.574Z,12.37
2023-01-29T03:50:25.114Z,11.83
2023-01-29T03:53:03.458Z,12.00
2023-01-29T03:55:36.913Z,11.37
2023-01-29T03:58:10.272Z,11.90
2023-01-29T04:00:46.146Z,11.10
2023-01-29T04:03:21.620Z,11.67
2023-01-29T04:06:05.555Z,12.23
2023-01-29T04:08:42.011Z,12.67
2023-01-29T04:11:17.012Z,12.80
2023-01-29T04:13:46.928Z,12.47
2023-01-29T04:16:23.785Z,14.03
2023-01-29T04:19:14.004Z,11.93
2023-01-29T04:21:46.546Z,12.67
2023-01-29T04:24:16.116Z,12.73
2023-01-29T04:26:59.449Z,12.57
2023-01-29T04:29:40.850Z,12.80
2023-01-29T04:32:19.935Z,12.40
2023-01-29T04:35:01.779Z,12.03
2023-01-29T04:37:38.604Z,13.10
2023-01-29T04:40:19.481Z,13.10
2023-01-29T04:42:54.741Z,12.90
2023-01-29T04:45:33.173Z,12.70
2023-01-29T04:48:12.198Z,12.20
2023-01-29T04:50:47.594Z,12.50
2023-01-29T04:53:23.784Z,11.63
2023-01-29T04:55:57.517Z,12.60
2023-01-29T04:58:33.096Z,12.47
2023-01-29T05:01:05.810Z,12.90
2023-01-29T05:03:37.364Z,12.53
2023-01-29T05:06:11.181Z,12.10
2023-01-29T05:08:41.229Z,13.63
2023-01-29T05:11:10.801Z,13.57
2023-01-29T05:13:42.873Z,13.80
2023-01-29T05:16:16.667Z,13.27
2023-01-29T05:18:45.402Z,13.33
2023-01-29T05:21:15.384Z,13.37
2023-01-29T05:23:53.114Z,12.43
2023-01-29T05:26:40.035Z,13.40
2023-01-29T05:29:09.132Z,12.33
2023-01-29T05:31:37.872Z,12.77
2023-01-29T05:34:06.476Z,13.90
2023-01-29T05:36:36.413Z,11.07
2023-01-29T05:39:05.125Z,12.10
2023-01-29T05:41:33.829Z,12.23
2023-01-29T05:44:02.396Z,12.20
2023-01-29T05:46:30.983Z,12.50
2023-01-29T05:48:59.681Z,13.17
2023-01-29T05:51:28.368Z,11.87
2023-01-29T05:53:58.386Z,13.30
2023-01-29T05:56:27.010Z,12.93
2023-01-29T05:58:56.621Z,12.93
2023-01-29T06:01:26.975Z,12.30
2023-01-29T06:03:55.719Z,12.97
2023-01-29T06:06:24.449Z,12.57
2023-01-29T06:08:52.993Z,12.43
2023-01-29T06:11:22.873Z,13.00
2023-01-29T06:13:51.406Z,12.03
2023-01-29T06:16:20.125Z,13.50
2023-01-29T06:18:48.845Z,12.13
2023-01-29T06:21:19.948Z,13.43
2023-01-29T06:23:48.659Z,12.87
2023-01-29T06:26:17.625Z,11.90
2023-01-29T06:28:50.457Z,11.77
2023-01-29T06:31:36.960Z,13.20
2023-01-29T06:34:07.172Z,11.97
2023-01-29T06:36:35.847Z,11.97
2023-01-29T06:39:04.842Z,11.93
2023-01-29T06:41:33.546Z,11.93
2023-01-29T06:44:03.659Z,12.87
2023-01-29T06:46:32.518Z,12.03
2023-01-29T06:49:01.413Z,11.27
2023-01-29T06:51:30.385Z,11.80
2023-01-29T06:53:59.426Z,11.90
2023-01-29T06:56:28.037Z,11.47
2023-01-29T06:58:56.741Z,12.43
2023-01-29T07:01:35.768Z,12.67
2023-01-29T07:04:05.274Z,11.50
2023-01-29T07:06:34.150Z,10.27
2023-01-29T07:09:02.870Z,12.20
2023-01-29T07:11:32.034Z,11.87
2023-01-29T07:14:00.604Z,11.37
2023-01-29T07:16:30.648Z,10.67
2023-01-29T07:18:59.244Z,11.20
2023-01-29T07:21:28.044Z,10.80
2023-01-29T07:23:56.751Z,11.90
2023-01-29T07:26:25.316Z,11.90
2023-01-29T07:28:53.995Z,11.03
2023-01-29T07:31:22.948Z,11.30
2023-01-29T07:33:52.974Z,10.60
2023-01-29T07:36:21.681Z,12.47
2023-01-29T07:38:51.551Z,11.00
2023-01-29T07:41:20.432Z,13.60
2023-01-29T07:43:49.447Z,11.13
2023-01-29T07:46:18.158Z,11.10
2023-01-29T07:48:46.753Z,11.90
2023-01-29T07:51:18.413Z,11.63
2023-01-29T07:53:47.228Z,11.70
2023-01-29T07:56:15.888Z,11.20
2023-01-29T07:58:44.605Z,11.67
2023-01-29T08:01:13.206Z,10.80
2023-01-29T08:03:41.964Z,11.93
2023-01-29T08:06:10.566Z,10.70
2023-01-29T08:08:40.657Z,12.07
2023-01-29T08:11:09.329Z,11.87
2023-01-29T08:13:37.949Z,11.47
2023-01-29T08:16:07.546Z,12.23
2023-01-29T08:18:38.094Z,11.57
2023-01-29T08:21:06.937Z,11.47
2023-01-29T08:23:35.574Z,11.90
2023-01-29T08:26:06.079Z,11.97
2023-01-29T08:28:35.207Z,11.83
2023-01-29T08:31:03.906Z,11.63
2023-01-29T08:33:38.925Z,11.53
2023-01-29T08:36:09.349Z,11.43
2023-01-29T08:38:37.965Z,11.20
2023-01-29T08:41:08.457Z,11.83
2023-01-29T08:43:38.540Z,11.83
2023-01-29T08:46:08.207Z,11.53
2023-01-29T08:48:36.907Z,10.73
2023-01-29T08:51:06.013Z,10.77
2023-01-29T08:53:34.584Z,10.93
2023-01-29T08:56:03.286Z,12.17
2023-01-29T08:58:33.298Z,11.43
2023-01-29T09:01:07.846Z,12.57
2023-01-29T09:03:36.647Z,11.80
2023-01-29T09:06:05.668Z,11.90
2023-01-29T09:08:35.455Z,11.07
2023-01-29T09:11:04.044Z,11.43
2023-01-29T09:13:34.369Z,11.33
2023-01-29T09:16:03.895Z,11.13
2023-01-29T09:18:32.925Z,12.17
2023-01-29T09:21:02.540Z,10.17
2023-01-29T09:23:31.498Z,11.27
2023-01-29T09:26:00.543Z,10.93
2023-01-29T09:28:29.195Z,10.30
2023-01-29T09:31:02.848Z,12.00
2023-01-29T09:33:32.441Z,10.63
2023-01-29T09:36:00.999Z,12.03
2023-01-29T09:38:29.574Z,10.30
2023-01-29T09:41:07.468Z,11.63
2023-01-29T09:43:45.288Z,11.53
2023-01-29T09:46:22.380Z,11.00
2023-01-29T09:48:58.816Z,12.17
2023-01-29T09:51:32.443Z,11.50
2023-01-29T09:54:12.633Z,10.80
2023-01-29T09:56:43.237Z,11.30
2023-01-29T09:59:14.570Z,10.90
2023-01-29T10:01:53.856Z,11.70
2023-01-29T10:04:45.460Z,10.80
2023-01-29T10:07:27.824Z,11.10
2023-01-29T10:10:09.779Z,11.27
2023-01-29T10:12:51.557Z,10.70
2023-01-29T10:15:32.183Z,10.97
2023-01-29T10:18:40.095Z,10.40
2023-01-29T10:21:29.394Z,11.17
2023-01-29T10:24:06.749Z,10.20
2023-01-29T10:26:37.839Z,10.47
2023-01-29T10:29:08.985Z,12.57
2023-01-29T10:31:40.763Z,11.40
2023-01-29T10:34:17.838Z,10.87
2023-01-29T10:36:47.707Z,11.07
2023-01-29T10:39:19.337Z,10.93
2023-01-29T10:42:07.640Z,11.80
2023-01-29T10:44:47.024Z,12.03
2023-01-29T10:47:53.908Z,11.23
2023-01-29T10:50:37.470Z,11.20
2023-01-29T10:53:30.516Z,12.07
2023-01-29T10:56:21.783Z,11.53
2023-01-29T10:58:53.244Z,11.97
2023-01-29T11:01:21.882Z,12.27
2023-01-29T11:03:58.037Z,11.30
2023-01-29T11:06:31.138Z,11.30
2023-01-29T11:09:09.086Z,12.83
2023-01-29T11:11:42.909Z,13.13
2023-01-29T11:14:15.174Z,12.30
2023-01-29T11:16:45.642Z,11.77
2023-01-29T11:19:14.803Z,12.77
2023-01-29T11:21:58.018Z,12.47
2023-01-29T11:24:26.908Z,12.83
2023-01-29T11:26:58.165Z,11.67
2023-01-29T11:29:40.639Z,11.80
2023-01-29T11:32:14.379Z,13.00
2023-01-29T11:35:03.204Z,13.13
2023-01-29T11:37:38.276Z,12.70
2023-01-29T11:40:38.660Z,13.23
2023-01-29T11:43:31.852Z,12.83
2023-01-29T11:46:03.546Z,12.13
2023-01-29T11:48:41.679Z,13.93
2023-01-29T11:51:13.682Z,12.93
2023-01-29T11:53:45.679Z,12.37
2023-01-29T11:56:23.605Z,12.67
2023-01-29T11:58:55.341Z,14.20
2023-01-29T12:01:32.979Z,13.53
2023-01-29T12:04:02.052Z,15.33
2023-01-29T12:06:36.605Z,13.47
2023-01-29T12:09:14.460Z,13.73
2023-01-29T12:11:44.469Z,13.37
2023-01-29T12:14:28.105Z,13.83
2023-01-29T12:17:00.692Z,13.53
2023-01-29T12:19:35.077Z,15.67
2023-01-29T12:22:07.649Z,13.67
2023-01-29T12:24:45.011Z,14.10
2023-01-29T12:27:18.536Z,14.33
2023-01-29T12:29:52.430Z,14.97
2023-01-29T12:32:30.730Z,14.73
2023-01-29T12:35:05.167Z,14.47
2023-01-29T12:37:46.627Z,13.70
2023-01-29T12:40:18.978Z,14.23
2023-01-29T12:42:50.716Z,13.33
2023-01-29T12:45:22.097Z,14.57
2023-01-29T12:47:53.398Z,13.30
2023-01-29T12:50:25.057Z,15.13
2023-01-29T12:52:56.810Z,12.93
2023-01-29T12:55:33.714Z,14.37
2023-01-29T12:58:05.400Z,14.77
2023-01-29T13:00:36.696Z,13.87
2023-01-29T13:03:16.194Z,15.73
2023-01-29T13:05:48.250Z,15.20
2023-01-29T13:08:21.942Z,16.87
2023-01-29T13:10:54.601Z,15.40
2023-01-29T13:13:29.397Z,14.57
2023-01-29T13:16:00.099Z,14.93
2023-01-29T13:18:40.699Z,14.10
2023-01-29T13:21:15.439Z,16.90
2023-01-29T13:23:48.046Z,13.93
2023-01-29T13:26:21.278Z,15.03
2023-01-29T13:28:50.746Z,16.50
2023-01-29T13:31:31.493Z,13.77
2023-01-29T13:34:10.877Z,14.70
2023-01-29T13:36:44.237Z,14.90
2023-01-29T13:39:23.633Z,15.77
2023-01-29T13:41:54.813Z,15.83
2023-01-29T13:44:26.867Z,15.90
2023-01-29T13:46:58.795Z,15.10
2023-01-29T13:49:32.639Z,15.20
2023-01-29T13:52:14.885Z,16.17
2023-01-29T13:54:52.636Z,14.37
2023-01-29T13:57:54.733Z,15.53
2023-01-29T14:00:58.627Z,15.30
2023-01-29T14:04:04.578Z,14.37
2023-01-29T14:06:44.856Z,14.43
2023-01-29T14:09:56.990Z,13.40
2023-01-29T14:12:44.414Z,14.83
2023-01-29T14:15:36.253Z,21.43
2023-01-29T14:18:17.278Z,13.77
2023-01-29T14:20:56.857Z,14.57
2023-01-29T14:23:35.701Z,14.37
2023-01-29T14:26:07.011Z,13.90
2023-01-29T14:28:36.323Z,13.77
2023-01-29T14:31:07.596Z,13.07
2023-01-29T14:33:39.833Z,13.77
2023-01-29T14:36:14.044Z,12.93
2023-01-29T14:38:51.145Z,13.57
2023-01-29T14:41:27.755Z,13.27
2023-01-29T14:44:29.616Z,14.60
2023-01-29T14:46:59.577Z,13.23
2023-01-29T14:49:50.634Z,14.43
2023-01-29T14:52:22.560Z,14.53
2023-01-29T14:54:54.101Z,13.47
2023-01-29T14:57:23.625Z,14.63
2023-01-29T14:59:57.253Z,13.83
2023-01-29T15:02:33.628Z,13.30
2023-01-29T15:05:05.564Z,13.20
2023-01-29T15:07:38.195Z,12.57
2023-01-29T15:10:23.666Z,15.07
2023-01-29T15:12:58.169Z,14.00
2023-01-29T15:15:36.311Z,14.63
2023-01-29T15:18:10.024Z,13.07
2023-01-29T15:20:40.242Z,12.93
2023-01-29T15:23:27.278Z,12.93
2023-01-29T15:25:58.263Z,13.13
2023-01-29T15:28:27.767Z,12.93
2023-01-29T15:30:59.020Z,12.20
2023-01-29T15:33:29.631Z,12.40
2023-01-29T15:36:08.731Z,13.90
2023-01-29T15:38:37.467Z,12.77
2023-01-29T15:41:18.584Z,13.30
2023-01-29T15:43:48.890Z,14.17
2023-01-29T15:46:24.026Z,12.80
2023-01-29T15:48:55.890Z,12.40
2023-01-29T15:51:28.119Z,13.73
2023-01-29T15:54:00.220Z,12.90
2023-01-29T15:56:33.431Z,12.30
2023-01-29T15:59:09.416Z,12.77
2023-01-29T16:01:38.452Z,13.70
2023-01-29T16:04:14.386Z,12.37
2023-01-29T16:06:44.454Z,13.20
2023-01-29T16:09:18.991Z,13.33
2023-01-29T16:11:50.401Z,12.63
2023-01-29T16:14:25.389Z,13.70
2023-01-29T16:16:54.064Z,13.67
2023-01-29T16:19:26.285Z,13.07
2023-01-29T16:22:00.180Z,13.17
2023-01-29T16:24:31.000Z,12.97
2023-01-29T16:27:02.190Z,13.23
2023-01-29T16:29:32.880Z,13.03
2023-01-29T16:32:03.687Z,12.80
2023-01-29T16:34:37.694Z,13.40
2023-01-29T16:37:08.708Z,12.73
2023-01-29T16:39:40.105Z,13.23
2023-01-29T16:42:30.039Z,14.20
2023-01-29T16:45:01.839Z,12.97
2023-01-29T16:47:36.074Z,14.50
2023-01-29T16:50:27.651Z,14.07
2023-01-29T16:52:58.247Z,12.87
2023-01-29T16:55:27.105Z,15.23
2023-01-29T16:57:57.215Z,15.87
2023-01-29T17:00:28.805Z,14.80
2023-01-29T17:03:02.345Z,14.00
2023-01-29T17:05:35.113Z,15.63
2023-01-29T17:08:05.716Z,15.30
2023-01-29T17:10:35.933Z,17.70
2023-01-29T17:13:07.542Z,14.03
2023-01-29T17:15:44.473Z,15.63
2023-01-29T17:18:18.784Z,14.90
2023-01-29T17:20:49.471Z,17.13
2023-01-29T17:23:18.243Z,15.07
2023-01-29T17:25:47.998Z,16.30
2023-01-29T17:28:18.822Z,14.73
2023-01-29T17:31:00.071Z,14.67
2023-01-29T17:33:29.307Z,16.23
2023-01-29T17:35:59.329Z,14.83
2023-01-29T17:38:27.971Z,16.93
2023-01-29T17:40:59.095Z,16.43
2023-01-29T17:43:27.858Z,15.10
2023-01-29T17:45:56.532Z,15.57
2023-01-29T17:48:26.798Z,17.00
2023-01-29T17:50:57.502Z,16.20
2023-01-29T17:53:43.352Z,16.13
2023-01-29T17:56:17.055Z,14.50
2023-01-29T17:58:45.743Z,14.20
2023-01-29T18:01:14.251Z,14.60
2023-01-29T18:03:43.029Z,14.53
2023-01-29T18:06:18.902Z,14.23
2023-01-29T18:08:48.872Z,12.93
2023-01-29T18:11:17.421Z,13.10
2023-01-29T18:13:46.016Z,15.50
2023-01-29T18:16:14.933Z,15.90
2023-01-29T18:18:43.549Z,18.43
2023-01-29T18:21:12.181Z,17.23
2023-01-29T18:23:41.002Z,15.20
2023-01-29T18:26:13.109Z,16.13
2023-01-29T18:28:43.661Z,15.13
2023-01-29T18:31:14.146Z,25.10
2023-01-29T18:33:43.070Z,23.00
2023-01-29T18:36:11.899Z,20.83
2023-01-29T18:38:40.762Z,18.80
2023-01-29T18:41:11.669Z,16.77
2023-01-29T18:43:41.117Z,19.43
2023-01-29T18:46:10.346Z,18.57
2023-01-29T18:48:40.937Z,21.17
2023-01-29T18:51:10.222Z,18.07
2023-01-29T18:53:38.755Z,17.90
2023-01-29T18:56:08.805Z,17.07
2023-01-29T18:58:39.429Z,17.27
2023-01-29T19:01:12.042Z,17.50
2023-01-29T19:03:41.647Z,18.17
2023-01-29T19:06:11.802Z,19.47
2023-01-29T19:08:42.963Z,17.33
2023-01-29T19:11:12.549Z,18.73
2023-01-29T19:13:42.947Z,18.57
2023-01-29T19:16:13.595Z,22.30
2023-01-29T19:18:42.390Z,19.53
2023-01-29T19:21:12.959Z,15.50
2023-01-29T19:23:42.135Z,17.83
2023-01-29T19:26:11.635Z,18.17
2023-01-29T19:28:41.872Z,19.80
2023-01-29T19:31:10.898Z,17.53
2023-01-29T19:33:39.981Z,19.10
2023-01-29T19:36:09.114Z,16.23
2023-01-29T19:38:41.215Z,14.97
2023-01-29T19:41:09.922Z,15.77
2023-01-29T19:43:41.885Z,15.33
2023-01-29T19:46:12.014Z,15.03
2023-01-29T19:48:40.779Z,15.90
2023-01-29T19:51:12.125Z,16.40
2023-01-29T19:53:43.763Z,14.37
2023-01-29T19:56:14.097Z,16.00
2023-01-29T19:58:42.725Z,15.30
2023-01-29T20:01:17.313Z,18.90
2023-01-29T20:03:47.608Z,20.00
2023-01-29T20:06:18.531Z,21.53
2023-01-29T20:08:47.501Z,19.13
2023-01-29T20:11:17.003Z,23.83
2023-01-29T20:13:48.414Z,16.47
2023-01-29T20:16:20.051Z,18.87
2023-01-29T20:18:48.638Z,29.93
2023-01-29T20:21:20.511Z,23.17
2023-01-29T20:23:51.494Z,20.33
2023-01-29T20:26:21.474Z,18.20
2023-01-29T20:28:50.346Z,21.00
2023-01-29T20:31:20.349Z,17.80
2023-01-29T20:33:48.841Z,16.30
2023-01-29T20:36:17.379Z,17.93
2023-01-29T20:38:46.162Z,17.43
2023-01-29T20:41:16.281Z,14.97
2023-01-29T20:43:45.848Z,16.57
2023-01-29T20:46:14.767Z,17.67
2023-01-29T20:48:44.725Z,18.07
2023-01-29T20:51:15.559Z,15.97
2023-01-29T20:53:46.392Z,15.77
2023-01-29T20:56:16.298Z,14.70
2023-01-29T20:58:46.546Z,14.87
2023-01-29T21:01:17.723Z,16.87
2023-01-29T21:03:49.495Z,16.17
2023-01-29T21:06:18.031Z,16.30
2023-01-29T21:08:46.824Z,16.27
2023-01-29T21:11:15.331Z,16.03
2023-01-29T21:13:44.018Z,16.07
2023-01-29T21:16:12.737Z,18.70
2023-01-29T21:18:41.319Z,16.53
2023-01-29T21:21:11.374Z,16.50
2023-01-29T21:23:39.928Z,17.03
2023-01-29T21:26:08.996Z,16.87
2023-01-29T21:28:37.638Z,16.20
2023-01-29T21:31:07.669Z,16.00
2023-01-29T21:33:36.205Z,16.63
2023-01-29T21:36:05.267Z,17.20
2023-01-29T21:38:35.267Z,16.60
2023-01-29T21:41:06.174Z,17.27
2023-01-29T21:43:34.014Z,15.70
2023-01-29T21:46:05.098Z,16.23
2023-01-29T21:48:33.777Z,16.53
2023-01-29T21:51:02.533Z,16.37
2023-01-29T21:53:31.084Z,16.60
2023-01-29T21:56:02.040Z,16.20
2023-01-29T21:58:30.941Z,16.30
2023-01-29T22:01:18.553Z,15.70
2023-01-29T22:03:47.984Z,15.60
2023-01-29T22:06:16.570Z,17.53
2023-01-29T22:08:45.030Z,15.20
2023-01-29T22:11:15.133Z,18.83
2023-01-29T22:13:43.867Z,16.23
2023-01-29T22:16:12.304Z,18.40
2023-01-29T22:18:40.794Z,19.97
2023-01-29T22:21:09.243Z,20.73
2023-01-29T22:23:38.013Z,22.67
2023-01-29T22:26:09.016Z,19.67
2023-01-29T22:28:38.957Z,20.13
2023-01-29T22:31:07.473Z,19.23
2023-01-29T22:33:36.020Z,18.10
2023-01-29T22:36:04.772Z,16.90
2023-01-29T22:38:33.301Z,17.70
2023-01-29T22:41:02.251Z,16.77
2023-01-29T22:43:30.876Z,16.77
2023-01-29T22:46:00.803Z,16.63
2023-01-29T22:48:30.523Z,18.90
2023-01-29T22:51:10.452Z,17.03
2023-01-29T22:53:40.025Z,16.63
2023-01-29T22:56:09.870Z,16.60
2023-01-29T22:58:38.603Z,17.50
2023-01-29T23:01:08.782Z,17.30
2023-01-29T23:03:37.569Z,17.50
2023-01-29T23:06:06.136Z,17.63
2023-01-29T23:08:35.019Z,16.73
2023-01-29T23:11:13.909Z,16.43
2023-01-29T23:13:44.155Z,18.50
2023-01-29T23:16:15.052Z,16.50
2023-01-29T23:18:43.847Z,16.57
2023-01-29T23:21:13.801Z,16.43
2023-01-29T23:23:44.890Z,17.37
2023-01-29T23:26:32.666Z,16.87
2023-01-29T23:29:01.492Z,16.63
2023-01-29T23:31:31.945Z,17.73
2023-01-29T23:34:00.488Z,16.83
2023-01-29T23:36:28.991Z,14.53
2023-01-29T23:38:57.522Z,15.10
2023-01-29T23:41:26.053Z,17.23
2023-01-29T23:43:54.525Z,16.50
2023-01-29T23:46:23.026Z,16.43
2023-01-29T23:48:52.878Z,13.30
2023-01-29T23:51:23.965Z,17.57
2023-01-29T23:53:52.523Z,16.93
2023-01-29T23:56:21.051Z,14.53
2023-01-29T23:58:53.308Z,14.07
